createdAt,value
2022-10-12T00:00:40.033Z,0.00
2022-10-12T00:01:40.045Z,0.00
2022-10-12T00:02:39.986Z,0.00
2022-10-12T00:03:39.982Z,0.00
2022-10-12T00:04:39.957Z,0.00
2022-10-12T00:05:39.979Z,0.00
2022-10-12T00:06:39.957Z,0.00
2022-10-12T00:07:40.372Z,0.00
2022-10-12T00:08:39.918Z,0.00
2022-10-12T00:09:39.917Z,0.00
2022-10-12T00:10:39.898Z,0.00
2022-10-12T00:11:39.918Z,0.00
2022-10-12T00:12:39.908Z,0.00
2022-10-12T00:13:39.871Z,0.00
2022-10-12T00:14:39.867Z,0.00
2022-10-12T00:15:39.869Z,0.00
2022-10-12T00:16:39.832Z,0.00
2022-10-12T00:17:40.074Z,0.00
2022-10-12T00:18:39.840Z,0.00
2022-10-12T00:19:39.810Z,0.00
2022-10-12T00:20:39.800Z,0.00
2022-10-12T00:21:39.798Z,0.00
2022-10-12T00:22:39.781Z,0.00
2022-10-12T00:23:39.762Z,0.00
2022-10-12T00:24:42.846Z,0.00
2022-10-12T00:25:39.763Z,0.00
2022-10-12T00:26:39.777Z,0.00
2022-10-12T00:27:39.930Z,0.00
2022-10-12T00:28:39.828Z,0.00
2022-10-12T00:29:39.712Z,0.00
2022-10-12T00:30:39.684Z,0.00
2022-10-12T00:31:39.695Z,0.00
2022-10-12T00:32:39.683Z,0.00
2022-10-12T00:33:39.683Z,0.00
2022-10-12T00:34:39.653Z,0.00
2022-10-12T00:35:39.653Z,0.00
2022-10-12T00:36:39.640Z,0.00
2022-10-12T00:37:40.163Z,0.00
2022-10-12T00:38:39.603Z,0.00
2022-10-12T00:39:39.595Z,0.00
2022-10-12T00:40:39.584Z,0.00
2022-10-12T00:41:39.605Z,0.00
2022-10-12T00:42:39.575Z,0.00
2022-10-12T00:43:39.562Z,0.00
2022-10-12T00:44:39.536Z,0.00
2022-10-12T00:45:39.545Z,0.00
2022-10-12T00:46:39.538Z,0.00
2022-10-12T00:47:39.792Z,0.00
2022-10-12T00:48:39.507Z,0.00
2022-10-12T00:49:39.504Z,0.00
2022-10-12T00:50:39.467Z,0.00
2022-10-12T00:51:39.485Z,0.00
2022-10-12T00:52:39.457Z,0.00
2022-10-12T00:53:39.447Z,0.00
2022-10-12T00:54:39.454Z,0.00
2022-10-12T00:55:39.435Z,0.00
2022-10-12T00:56:39.418Z,0.00
2022-10-12T00:57:44.469Z,0.00
2022-10-12T00:58:40.388Z,0.00
2022-10-12T00:59:39.388Z,0.00
2022-10-12T01:00:39.448Z,0.00
2022-10-12T01:01:39.368Z,0.00
2022-10-12T01:02:39.358Z,0.00
2022-10-12T01:03:39.339Z,0.00
2022-10-12T01:04:39.319Z,0.00
2022-10-12T01:05:39.328Z,0.00
2022-10-12T01:06:39.299Z,0.00
2022-10-12T01:07:39.753Z,0.00
2022-10-12T01:08:39.320Z,0.00
2022-10-12T01:09:39.278Z,0.00
2022-10-12T01:10:39.262Z,0.00
2022-10-12T01:11:39.271Z,0.00
2022-10-12T01:12:39.252Z,0.00
2022-10-12T01:13:39.232Z,0.00
2022-10-12T01:14:39.231Z,0.00
2022-10-12T01:15:39.209Z,0.00
2022-10-12T01:16:39.196Z,0.00
2022-10-12T01:17:39.376Z,0.00
2022-10-12T01:18:39.190Z,0.00
2022-10-12T01:19:39.160Z,0.00
2022-10-12T01:20:39.139Z,0.00
2022-10-12T01:21:39.151Z,0.00
2022-10-12T01:22:39.131Z,0.00
2022-10-12T01:23:39.110Z,0.00
2022-10-12T01:24:39.116Z,0.00
2022-10-12T01:25:39.113Z,0.00
2022-10-12T01:26:39.078Z,0.00
2022-10-12T01:27:39.545Z,0.00
2022-10-12T01:28:39.144Z,0.00
2022-10-12T01:29:39.070Z,0.00
2022-10-12T01:30:39.033Z,0.00
2022-10-12T01:31:39.032Z,0.00
2022-10-12T01:32:39.013Z,0.00
2022-10-12T01:33:39.012Z,0.00
2022-10-12T01:34:39.020Z,0.00
2022-10-12T01:35:39.012Z,0.00
2022-10-12T01:36:38.975Z,0.00
2022-10-12T01:37:39.271Z,0.00
2022-10-12T01:38:38.962Z,0.00
2022-10-12T01:39:38.952Z,0.00
2022-10-12T01:40:38.953Z,0.00
2022-10-12T01:41:38.922Z,0.00
2022-10-12T01:42:38.903Z,0.00
2022-10-12T01:43:38.921Z,0.00
2022-10-12T01:44:42.732Z,0.00
2022-10-12T01:45:38.885Z,0.00
2022-10-12T01:46:38.864Z,0.00
2022-10-12T01:47:39.219Z,0.00
2022-10-12T01:48:38.857Z,0.00
2022-10-12T01:49:38.854Z,0.00
2022-10-12T01:50:38.836Z,0.00
2022-10-12T01:51:38.825Z,0.00
2022-10-12T01:52:38.825Z,0.00
2022-10-12T01:53:38.805Z,0.00
2022-10-12T01:54:38.813Z,0.00
2022-10-12T01:55:38.778Z,0.00
2022-10-12T01:56:38.756Z,0.00
2022-10-12T01:57:39.131Z,0.00
2022-10-12T01:58:38.756Z,0.00
2022-10-12T01:59:38.737Z,0.00
2022-10-12T02:00:38.851Z,0.00
2022-10-12T02:01:38.778Z,0.00
2022-10-12T02:02:38.717Z,0.00
2022-10-12T02:03:38.726Z,0.00
2022-10-12T02:04:38.677Z,0.00
2022-10-12T02:05:38.667Z,0.00
2022-10-12T02:06:38.658Z,0.00
2022-10-12T02:07:39.112Z,0.00
2022-10-12T02:08:38.648Z,0.00
2022-10-12T02:09:38.639Z,0.00
2022-10-12T02:10:38.620Z,0.00
2022-10-12T02:11:38.599Z,0.00
2022-10-12T02:12:38.603Z,0.00
2022-10-12T02:13:38.611Z,0.00
2022-10-12T02:14:38.590Z,0.00
2022-10-12T02:15:38.582Z,0.00
2022-10-12T02:16:38.541Z,0.00
2022-10-12T02:17:38.949Z,0.00
2022-10-12T02:18:38.539Z,0.00
2022-10-12T02:19:38.614Z,0.00
2022-10-12T02:20:38.521Z,0.00
2022-10-12T02:21:38.501Z,0.00
2022-10-12T02:22:38.480Z,0.00
2022-10-12T02:23:38.481Z,0.00
2022-10-12T02:24:38.481Z,0.00
2022-10-12T02:25:38.452Z,0.00
2022-10-12T02:26:38.443Z,0.00
2022-10-12T02:27:38.836Z,0.00
2022-10-12T02:28:38.458Z,0.00
2022-10-12T02:29:38.436Z,0.00
2022-10-12T02:30:38.430Z,0.00
2022-10-12T02:31:38.393Z,0.00
2022-10-12T02:32:38.387Z,0.00
2022-10-12T02:33:38.383Z,0.00
2022-10-12T02:34:38.353Z,0.00
2022-10-12T02:35:38.353Z,0.00
2022-10-12T02:36:38.342Z,0.00
2022-10-12T02:37:38.738Z,0.00
2022-10-12T02:38:38.313Z,0.00
2022-10-12T02:39:38.336Z,0.00
2022-10-12T02:40:38.291Z,0.00
2022-10-12T02:41:38.294Z,0.00
2022-10-12T02:43:05.634Z,0.00
2022-10-12T02:43:39.276Z,0.00
2022-10-12T02:44:38.265Z,0.00
2022-10-12T02:45:38.235Z,0.00
2022-10-12T02:46:38.254Z,0.00
2022-10-12T02:47:38.628Z,0.00
2022-10-12T02:48:38.206Z,0.00
2022-10-12T02:49:38.195Z,0.00
2022-10-12T02:50:38.198Z,0.00
2022-10-12T02:51:38.175Z,0.00
2022-10-12T02:52:38.163Z,0.00
2022-10-12T02:53:38.173Z,0.00
2022-10-12T02:54:38.166Z,0.00
2022-10-12T02:55:38.146Z,0.00
2022-10-12T02:56:38.116Z,0.00
2022-10-12T02:57:38.520Z,0.00
2022-10-12T02:58:38.117Z,0.00
2022-10-12T02:59:38.115Z,0.00
2022-10-12T03:00:38.111Z,0.00
2022-10-12T03:01:38.119Z,0.00
2022-10-12T03:02:38.057Z,0.00
2022-10-12T03:03:38.065Z,0.00
2022-10-12T03:04:38.037Z,0.00
2022-10-12T03:05:38.048Z,0.00
2022-10-12T03:06:38.031Z,0.00
2022-10-12T03:07:38.250Z,0.00
2022-10-12T03:08:37.989Z,0.00
2022-10-12T03:09:38.009Z,0.00
2022-10-12T03:10:37.969Z,0.00
2022-10-12T03:11:37.989Z,0.00
2022-10-12T03:12:37.967Z,0.00
2022-10-12T03:13:37.961Z,0.00
2022-10-12T03:14:37.930Z,0.00
2022-10-12T03:15:37.941Z,0.00
2022-10-12T03:16:37.911Z,0.00
2022-10-12T03:17:38.194Z,0.00
2022-10-12T03:18:37.911Z,0.00
2022-10-12T03:19:37.901Z,0.00
2022-10-12T03:20:37.882Z,0.00
2022-10-12T03:21:37.866Z,0.00
2022-10-12T03:22:37.842Z,0.00
2022-10-12T03:23:37.874Z,0.00
2022-10-12T03:24:37.835Z,0.00
2022-10-12T03:25:37.817Z,0.00
2022-10-12T03:26:37.809Z,0.00
2022-10-12T03:27:38.069Z,0.00
2022-10-12T03:28:37.882Z,0.00
2022-10-12T03:29:37.797Z,0.00
2022-10-12T03:30:37.762Z,0.00
2022-10-12T03:31:37.763Z,0.00
2022-10-12T03:32:37.754Z,0.00
2022-10-12T03:33:37.747Z,0.00
2022-10-12T03:34:37.731Z,0.00
2022-10-12T03:35:37.745Z,0.00
2022-10-12T03:36:37.704Z,0.00
2022-10-12T03:37:37.964Z,0.00
2022-10-12T03:38:37.695Z,0.00
2022-10-12T03:39:37.684Z,0.00
2022-10-12T03:40:37.675Z,0.00
2022-10-12T03:41:37.655Z,0.00
2022-10-12T03:42:37.645Z,0.00
2022-10-12T03:43:37.626Z,0.00
2022-10-12T03:44:37.606Z,0.00
2022-10-12T03:45:37.606Z,0.00
2022-10-12T03:46:37.585Z,0.00
2022-10-12T03:47:37.867Z,0.00
2022-10-12T03:48:37.570Z,0.00
2022-10-12T03:49:37.576Z,0.00
2022-10-12T03:50:37.556Z,0.00
2022-10-12T03:51:37.548Z,0.00
2022-10-12T03:52:37.540Z,0.00
2022-10-12T03:53:40.691Z,0.00
2022-10-12T03:54:39.227Z,0.00
2022-10-12T03:55:37.488Z,0.00
2022-10-12T03:56:37.516Z,0.00
2022-10-12T03:57:37.777Z,0.00
2022-10-12T03:58:37.468Z,0.00
2022-10-12T03:59:37.458Z,0.00
2022-10-12T04:00:37.463Z,0.00
2022-10-12T04:01:37.504Z,0.00
2022-10-12T04:02:37.418Z,0.00
2022-10-12T04:03:37.440Z,0.00
2022-10-12T04:04:37.409Z,0.00
2022-10-12T04:05:37.380Z,0.00
2022-10-12T04:06:37.390Z,0.00
2022-10-12T04:07:37.620Z,0.00
2022-10-12T04:08:39.917Z,0.00
2022-10-12T04:09:37.339Z,0.00
2022-10-12T04:10:37.339Z,0.00
2022-10-12T04:11:37.328Z,0.00
2022-10-12T04:12:37.310Z,0.00
2022-10-12T04:13:37.331Z,0.00
2022-10-12T04:14:37.299Z,0.00
2022-10-12T04:15:37.295Z,0.00
2022-10-12T04:16:37.310Z,0.00
2022-10-12T04:17:37.523Z,0.00
2022-10-12T04:18:37.263Z,0.00
2022-10-12T04:19:37.232Z,0.00
2022-10-12T04:20:37.292Z,0.00
2022-10-12T04:21:37.240Z,0.00
2022-10-12T04:22:37.215Z,0.00
2022-10-12T04:23:37.211Z,0.00
2022-10-12T04:24:37.183Z,0.00
2022-10-12T04:25:37.185Z,0.00
2022-10-12T04:26:37.195Z,0.00
2022-10-12T04:27:37.529Z,0.00
2022-10-12T04:28:37.236Z,0.00
2022-10-12T04:29:37.125Z,0.00
2022-10-12T04:30:37.124Z,0.00
2022-10-12T04:31:37.119Z,0.00
2022-10-12T04:32:37.111Z,0.00
2022-10-12T04:33:37.104Z,0.00
2022-10-12T04:34:37.074Z,0.00
2022-10-12T04:35:37.064Z,0.00
2022-10-12T04:36:37.063Z,0.00
2022-10-12T04:37:37.342Z,0.00
2022-10-12T04:38:37.055Z,0.00
2022-10-12T04:39:37.040Z,0.00
2022-10-12T04:40:37.052Z,0.00
2022-10-12T04:41:37.005Z,0.00
2022-10-12T04:42:36.996Z,0.00
2022-10-12T04:43:37.006Z,0.00
2022-10-12T04:44:36.986Z,0.00
2022-10-12T04:45:36.977Z,0.00
2022-10-12T04:46:36.957Z,0.00
2022-10-12T04:47:37.208Z,0.00
2022-10-12T04:48:36.947Z,0.00
2022-10-12T04:49:36.951Z,0.00
2022-10-12T04:50:36.926Z,0.00
2022-10-12T04:51:36.928Z,0.00
2022-10-12T04:52:36.889Z,0.00
2022-10-12T04:53:36.877Z,0.00
2022-10-12T04:54:36.959Z,0.00
2022-10-12T04:55:36.860Z,0.00
2022-10-12T04:56:36.869Z,0.00
2022-10-12T04:57:37.230Z,0.00
2022-10-12T04:58:36.833Z,0.00
2022-10-12T04:59:36.822Z,0.00
2022-10-12T05:00:36.832Z,0.00
2022-10-12T05:01:36.833Z,0.00
2022-10-12T05:02:36.790Z,0.00
2022-10-12T05:03:41.052Z,0.00
2022-10-12T05:04:37.763Z,0.00
2022-10-12T05:05:36.770Z,0.00
2022-10-12T05:06:36.759Z,0.00
2022-10-12T05:07:37.023Z,0.00
2022-10-12T05:08:36.724Z,0.00
2022-10-12T05:09:36.711Z,0.00
2022-10-12T05:10:36.710Z,0.00
2022-10-12T05:11:36.691Z,0.00
2022-10-12T05:12:36.972Z,0.00
2022-10-12T05:13:36.673Z,0.00
2022-10-12T05:14:36.673Z,0.00
2022-10-12T05:15:36.642Z,0.00
2022-10-12T05:16:36.634Z,0.00
2022-10-12T05:17:36.869Z,4.00
2022-10-12T05:18:36.633Z,0.00
2022-10-12T05:19:36.624Z,0.00
2022-10-12T05:20:36.603Z,4.00
2022-10-12T05:21:36.591Z,4.00
2022-10-12T05:22:36.573Z,4.00
2022-10-12T05:23:36.584Z,4.00
2022-10-12T05:24:36.562Z,4.00
2022-10-12T05:25:36.563Z,8.00
2022-10-12T05:26:36.557Z,8.00
2022-10-12T05:27:36.749Z,8.00
2022-10-12T05:28:40.857Z,12.00
2022-10-12T05:29:36.494Z,12.00
2022-10-12T05:30:36.501Z,16.00
2022-10-12T05:31:36.485Z,20.00
2022-10-12T05:32:36.836Z,24.00
2022-10-12T05:33:36.484Z,24.00
2022-10-12T05:34:36.438Z,28.00
2022-10-12T05:35:36.445Z,36.00
2022-10-12T05:36:36.447Z,40.00
2022-10-12T05:37:36.789Z,44.00
2022-10-12T05:38:36.406Z,52.00
2022-10-12T05:39:36.383Z,52.00
2022-10-12T05:40:36.407Z,60.00
2022-10-12T05:41:36.380Z,64.00
2022-10-12T05:42:36.763Z,72.00
2022-10-12T05:43:36.347Z,84.00
2022-10-12T05:44:36.341Z,100.00
2022-10-12T05:45:36.349Z,116.00
2022-10-12T05:46:36.349Z,128.00
2022-10-12T05:47:36.581Z,140.00
2022-10-12T05:48:36.308Z,148.00
2022-10-12T05:49:36.299Z,160.00
2022-10-12T05:50:36.298Z,160.00
2022-10-12T05:51:36.289Z,172.00
2022-10-12T05:52:36.715Z,176.00
2022-10-12T05:53:36.252Z,180.00
2022-10-12T05:54:36.239Z,184.00
2022-10-12T05:55:36.247Z,188.00
2022-10-12T05:56:36.219Z,192.00
2022-10-12T05:57:36.189Z,200.00
2022-10-12T05:58:36.220Z,204.00
2022-10-12T05:59:36.180Z,212.00
2022-10-12T06:00:36.181Z,212.00
2022-10-12T06:01:36.212Z,224.00
2022-10-12T06:02:36.480Z,244.00
2022-10-12T06:03:36.203Z,268.00
2022-10-12T06:04:36.120Z,288.00
2022-10-12T06:05:36.121Z,312.00
2022-10-12T06:06:36.101Z,328.00
2022-10-12T06:07:36.117Z,356.00
2022-10-12T06:08:36.095Z,384.00
2022-10-12T06:09:36.062Z,404.00
2022-10-12T06:10:36.066Z,420.00
2022-10-12T06:11:36.599Z,432.00
2022-10-12T06:12:36.371Z,452.00
2022-10-12T06:13:36.022Z,456.00
2022-10-12T06:14:36.032Z,460.00
2022-10-12T06:15:36.013Z,464.00
2022-10-12T06:16:36.004Z,468.00
2022-10-12T06:17:35.974Z,480.00
2022-10-12T06:18:35.984Z,492.00
2022-10-12T06:19:35.984Z,516.00
2022-10-12T06:20:35.961Z,560.00
2022-10-12T06:21:35.935Z,604.00
2022-10-12T06:22:36.078Z,636.00
2022-10-12T06:23:35.914Z,664.00
2022-10-12T06:24:35.925Z,692.00
2022-10-12T06:25:35.905Z,720.00
2022-10-12T06:26:35.884Z,752.00
2022-10-12T06:27:35.875Z,784.00
2022-10-12T06:28:35.898Z,808.00
2022-10-12T06:29:35.855Z,824.00
2022-10-12T06:30:35.866Z,820.00
2022-10-12T06:31:35.847Z,816.00
2022-10-12T06:32:36.080Z,812.00
2022-10-12T06:33:35.806Z,824.00
2022-10-12T06:34:35.806Z,824.00
2022-10-12T06:35:35.807Z,836.00
2022-10-12T06:36:35.778Z,856.00
2022-10-12T06:37:49.493Z,880.00
2022-10-12T06:38:36.767Z,932.00
2022-10-12T06:39:35.757Z,992.00
2022-10-12T06:40:35.747Z,1040.00
2022-10-12T06:41:35.728Z,1084.00
2022-10-12T06:42:36.075Z,1080.00
2022-10-12T06:43:35.708Z,1112.00
2022-10-12T06:44:35.709Z,1128.00
2022-10-12T06:45:35.688Z,1144.00
2022-10-12T06:46:35.710Z,1192.00
2022-10-12T06:47:35.671Z,1232.00
2022-10-12T06:48:35.660Z,1280.00
2022-10-12T06:49:35.677Z,1308.00
2022-10-12T06:50:35.650Z,1308.00
2022-10-12T06:51:35.630Z,1320.00
2022-10-12T06:52:35.895Z,1312.00
2022-10-12T06:53:35.598Z,1288.00
2022-10-12T06:54:35.627Z,1264.00
2022-10-12T06:55:35.571Z,1264.00
2022-10-12T06:56:35.572Z,1276.00
2022-10-12T06:57:35.560Z,1280.00
2022-10-12T06:58:35.582Z,1288.00
2022-10-12T06:59:35.558Z,1304.00
2022-10-12T07:00:35.571Z,1308.00
2022-10-12T07:01:35.600Z,1332.00
2022-10-12T07:02:35.756Z,1380.00
2022-10-12T07:03:35.503Z,1460.00
2022-10-12T07:04:35.529Z,1560.00
2022-10-12T07:05:35.571Z,1660.00
2022-10-12T07:06:35.466Z,1768.00
2022-10-12T07:07:35.452Z,1836.00
2022-10-12T07:08:35.461Z,1880.00
2022-10-12T07:09:35.443Z,1920.00
2022-10-12T07:10:35.444Z,1928.00
2022-10-12T07:11:35.403Z,1924.00
2022-10-12T07:12:35.517Z,1872.00
2022-10-12T07:13:35.394Z,1836.00
2022-10-12T07:14:35.413Z,1820.00
2022-10-12T07:15:35.375Z,1812.00
2022-10-12T07:16:35.354Z,1796.00
2022-10-12T07:17:35.608Z,1812.00
2022-10-12T07:18:35.357Z,1828.00
2022-10-12T07:19:35.324Z,1860.00
2022-10-12T07:20:35.316Z,1884.00
2022-10-12T07:21:35.323Z,1904.00
2022-10-12T07:22:35.295Z,1944.00
2022-10-12T07:23:35.295Z,1940.00
2022-10-12T07:24:35.266Z,1896.00
2022-10-12T07:25:35.256Z,1784.00
2022-10-12T07:26:35.246Z,1708.00
2022-10-12T07:27:35.398Z,1736.00
2022-10-12T07:28:35.275Z,1844.00
2022-10-12T07:29:35.228Z,2000.00
2022-10-12T07:30:35.197Z,2144.00
2022-10-12T07:31:35.205Z,2168.00
2022-10-12T07:32:35.197Z,1980.00
2022-10-12T07:33:35.167Z,1716.00
2022-10-12T07:34:35.160Z,1612.00
2022-10-12T07:35:37.829Z,1624.00
2022-10-12T07:36:58.205Z,1688.00
2022-10-12T07:37:36.263Z,1772.00
2022-10-12T07:38:35.139Z,1976.00
2022-10-12T07:39:35.106Z,2288.00
2022-10-12T07:40:35.109Z,2620.00
2022-10-12T07:41:35.080Z,2752.00
2022-10-12T07:42:35.085Z,2728.00
2022-10-12T07:43:35.060Z,2724.00
2022-10-12T07:44:35.066Z,2824.00
2022-10-12T07:45:35.061Z,2904.00
2022-10-12T07:46:35.041Z,2876.00
2022-10-12T07:47:35.031Z,2828.00
2022-10-12T07:48:35.010Z,2784.00
2022-10-12T07:49:35.000Z,2780.00
2022-10-12T07:50:35.009Z,2788.00
2022-10-12T07:51:34.971Z,2824.00
2022-10-12T07:52:34.964Z,2892.00
2022-10-12T07:53:34.961Z,3000.00
2022-10-12T07:54:34.970Z,3048.00
2022-10-12T07:55:34.923Z,3048.00
2022-10-12T07:56:34.923Z,3056.00
2022-10-12T07:57:34.922Z,3096.00
2022-10-12T07:58:34.907Z,3168.00
2022-10-12T07:59:34.903Z,3268.00
2022-10-12T08:00:34.904Z,3360.00
2022-10-12T08:01:34.923Z,3384.00
2022-10-12T08:02:34.862Z,3384.00
2022-10-12T08:03:34.863Z,3412.00
2022-10-12T08:04:34.875Z,3412.00
2022-10-12T08:05:34.834Z,3320.00
2022-10-12T08:06:34.823Z,3336.00
2022-10-12T08:07:34.890Z,3428.00
2022-10-12T08:08:34.795Z,3456.00
2022-10-12T08:09:34.796Z,3484.00
2022-10-12T08:10:34.785Z,3572.00
2022-10-12T08:11:34.758Z,3532.00
2022-10-12T08:12:34.779Z,3392.00
2022-10-12T08:13:34.736Z,3480.00
2022-10-12T08:14:34.745Z,3648.00
2022-10-12T08:15:34.737Z,3728.00
2022-10-12T08:16:34.726Z,3740.00
2022-10-12T08:17:34.778Z,3728.00
2022-10-12T08:18:34.698Z,3864.00
2022-10-12T08:19:35.505Z,3948.00
2022-10-12T08:20:34.668Z,3828.00
2022-10-12T08:21:34.679Z,3636.00
2022-10-12T08:22:34.661Z,3580.00
2022-10-12T08:23:34.646Z,3592.00
2022-10-12T08:24:34.649Z,3532.00
2022-10-12T08:25:34.608Z,3428.00
2022-10-12T08:26:34.641Z,3468.00
2022-10-12T08:27:34.609Z,3588.00
2022-10-12T08:28:34.633Z,3492.00
2022-10-12T08:29:34.569Z,3500.00
2022-10-12T08:30:34.560Z,3596.00
2022-10-12T08:31:34.550Z,3552.00
2022-10-12T08:32:34.553Z,3728.00
2022-10-12T08:33:34.548Z,4036.00
2022-10-12T08:34:34.521Z,4128.00
2022-10-12T08:35:34.513Z,4120.00
2022-10-12T08:36:34.511Z,4112.00
2022-10-12T08:37:34.522Z,4248.00
2022-10-12T08:38:34.479Z,4468.00
2022-10-12T08:39:34.482Z,4660.00
2022-10-12T08:40:34.452Z,4728.00
2022-10-12T08:41:34.472Z,4740.00
2022-10-12T08:42:34.442Z,4772.00
2022-10-12T08:43:34.422Z,4816.00
2022-10-12T08:44:34.409Z,4880.00
2022-10-12T08:45:34.403Z,5124.00
2022-10-12T08:46:34.412Z,5224.00
2022-10-12T08:47:34.502Z,5128.00
2022-10-12T08:48:34.373Z,4884.00
2022-10-12T08:49:34.354Z,4864.00
2022-10-12T08:50:34.344Z,4828.00
2022-10-12T08:51:34.344Z,4940.00
2022-10-12T08:52:34.347Z,5008.00
2022-10-12T08:53:34.332Z,5052.00
2022-10-12T08:54:34.336Z,5004.00
2022-10-12T08:55:34.296Z,5044.00
2022-10-12T08:56:34.299Z,5072.00
2022-10-12T08:57:34.328Z,5076.00
2022-10-12T08:58:34.258Z,5140.00
2022-10-12T08:59:34.259Z,5168.00
2022-10-12T09:01:34.327Z,5668.00
2022-10-12T09:02:34.217Z,5628.00
2022-10-12T09:03:34.226Z,5488.00
2022-10-12T09:04:34.207Z,5288.00
2022-10-12T09:05:34.178Z,5132.00
2022-10-12T09:06:34.198Z,5344.00
2022-10-12T09:07:34.168Z,5656.00
2022-10-12T09:08:34.161Z,5792.00
2022-10-12T09:09:34.138Z,5664.00
2022-10-12T09:10:34.158Z,5676.00
2022-10-12T09:11:34.119Z,5756.00
2022-10-12T09:12:34.121Z,5688.00
2022-10-12T09:13:34.100Z,5444.00
2022-10-12T09:14:34.079Z,5364.00
2022-10-12T09:15:34.080Z,5344.00
2022-10-12T09:16:34.062Z,5148.00
2022-10-12T09:17:34.091Z,4964.00
2022-10-12T09:18:38.257Z,4940.00
2022-10-12T09:19:35.053Z,5060.00
2022-10-12T09:20:34.021Z,5240.00
2022-10-12T09:21:34.022Z,5276.00
2022-10-12T09:22:34.037Z,5060.00
2022-10-12T09:23:34.031Z,4860.00
2022-10-12T09:24:33.994Z,4736.00
2022-10-12T09:25:33.971Z,4616.00
2022-10-12T09:26:33.970Z,4436.00
2022-10-12T09:27:33.971Z,4296.00
2022-10-12T09:28:34.241Z,3996.00
2022-10-12T09:29:33.933Z,3864.00
2022-10-12T09:30:33.937Z,3724.00
2022-10-12T09:31:33.903Z,3596.00
2022-10-12T09:32:33.894Z,3552.00
2022-10-12T09:33:33.895Z,3272.00
2022-10-12T09:34:33.905Z,2968.00
2022-10-12T09:35:33.874Z,2804.00
2022-10-12T09:36:33.868Z,2728.00
2022-10-12T09:37:33.847Z,2600.00
2022-10-12T09:38:33.826Z,2488.00
2022-10-12T09:39:33.844Z,2544.00
2022-10-12T09:40:33.845Z,2744.00
2022-10-12T09:41:33.796Z,3088.00
2022-10-12T09:42:33.806Z,3368.00
2022-10-12T09:43:33.794Z,3320.00
2022-10-12T09:44:33.777Z,3052.00
2022-10-12T09:45:33.787Z,2784.00
2022-10-12T09:46:33.749Z,2620.00
2022-10-12T09:47:33.770Z,2552.00
2022-10-12T09:48:33.734Z,2532.00
2022-10-12T09:49:33.719Z,2540.00
2022-10-12T09:50:33.728Z,2660.00
2022-10-12T09:51:33.699Z,2852.00
2022-10-12T09:52:33.710Z,3036.00
2022-10-12T09:53:33.697Z,3200.00
2022-10-12T09:54:33.724Z,3408.00
2022-10-12T09:55:33.653Z,3520.00
2022-10-12T09:56:33.652Z,3544.00
2022-10-12T09:57:33.650Z,3520.00
2022-10-12T09:58:33.622Z,3488.00
2022-10-12T09:59:33.631Z,3500.00
2022-10-12T10:00:33.610Z,3536.00
2022-10-12T10:01:33.658Z,3536.00
2022-10-12T10:02:33.602Z,3532.00
2022-10-12T10:03:33.573Z,3596.00
2022-10-12T10:04:33.584Z,3732.00
2022-10-12T10:05:33.563Z,3884.00
2022-10-12T10:06:33.563Z,3944.00
2022-10-12T10:07:33.559Z,3884.00
2022-10-12T10:08:33.712Z,3648.00
2022-10-12T10:09:33.506Z,3400.00
2022-10-12T10:10:33.492Z,3228.00
2022-10-12T10:11:33.520Z,3180.00
2022-10-12T10:12:33.475Z,3212.00
2022-10-12T10:13:33.465Z,3380.00
2022-10-12T10:14:33.463Z,3592.00
2022-10-12T10:15:33.465Z,3752.00
2022-10-12T10:16:33.436Z,3912.00
2022-10-12T10:17:33.444Z,4036.00
2022-10-12T10:18:33.416Z,4164.00
2022-10-12T10:19:33.425Z,4292.00
2022-10-12T10:20:33.404Z,4316.00
2022-10-12T10:21:33.403Z,4280.00
2022-10-12T10:22:33.366Z,4296.00
2022-10-12T10:23:33.367Z,4272.00
2022-10-12T10:24:33.359Z,4268.00
2022-10-12T10:25:33.347Z,4272.00
2022-10-12T10:26:33.386Z,4364.00
2022-10-12T10:27:33.325Z,4424.00
2022-10-12T10:28:33.350Z,4344.00
2022-10-12T10:29:33.298Z,4176.00
2022-10-12T10:30:38.004Z,4124.00
2022-10-12T10:31:34.301Z,4208.00
2022-10-12T10:32:33.279Z,4288.00
2022-10-12T10:33:33.279Z,4284.00
2022-10-12T10:34:33.249Z,4228.00
2022-10-12T10:35:33.259Z,4292.00
2022-10-12T10:36:33.238Z,4396.00
2022-10-12T10:37:33.221Z,4576.00
2022-10-12T10:38:33.228Z,4896.00
2022-10-12T10:39:33.192Z,5236.00
2022-10-12T10:40:33.221Z,5640.00
2022-10-12T10:41:33.187Z,6216.00
2022-10-12T10:42:33.444Z,6680.00
2022-10-12T10:43:33.152Z,6940.00
2022-10-12T10:44:33.191Z,6952.00
2022-10-12T10:45:33.210Z,7000.00
2022-10-12T10:46:33.151Z,7180.00
2022-10-12T10:47:33.112Z,7344.00
2022-10-12T10:48:33.092Z,7580.00
2022-10-12T10:49:33.093Z,7848.00
2022-10-12T10:50:33.093Z,7956.00
2022-10-12T10:51:33.063Z,7912.00
2022-10-12T10:52:33.048Z,7496.00
2022-10-12T10:53:33.076Z,6984.00
2022-10-12T10:54:33.034Z,6476.00
2022-10-12T10:55:33.035Z,6024.00
2022-10-12T10:56:33.015Z,5792.00
2022-10-12T10:57:32.995Z,5872.00
2022-10-12T10:58:33.013Z,6012.00
2022-10-12T10:59:32.967Z,6080.00
2022-10-12T11:00:39.186Z,6268.00
2022-10-12T11:01:34.021Z,6260.00
2022-10-12T11:02:32.944Z,6168.00
2022-10-12T11:03:32.947Z,6176.00
2022-10-12T11:04:32.925Z,6320.00
2022-10-12T11:05:33.071Z,6552.00
2022-10-12T11:06:32.900Z,6820.00
2022-10-12T11:07:32.887Z,6944.00
2022-10-12T11:08:32.901Z,6916.00
2022-10-12T11:09:32.888Z,6944.00
2022-10-12T11:10:32.861Z,6964.00
2022-10-12T11:11:32.839Z,7168.00
2022-10-12T11:12:32.852Z,7404.00
2022-10-12T11:13:32.829Z,7420.00
2022-10-12T11:14:32.823Z,7568.00
2022-10-12T11:15:32.812Z,7880.00
2022-10-12T11:16:32.790Z,8280.00
2022-10-12T11:17:32.790Z,8424.00
2022-10-12T11:18:32.767Z,8408.00
2022-10-12T11:19:32.788Z,8312.00
2022-10-12T11:20:32.754Z,8372.00
2022-10-12T11:21:32.762Z,8704.00
2022-10-12T11:22:32.736Z,9028.00
2022-10-12T11:23:32.724Z,8728.00
2022-10-12T11:24:32.733Z,8008.00
2022-10-12T11:25:32.703Z,7744.00
2022-10-12T11:26:32.693Z,7792.00
2022-10-12T11:27:32.801Z,7860.00
2022-10-12T11:28:32.700Z,8328.00
2022-10-12T11:29:32.664Z,9060.00
2022-10-12T11:30:32.642Z,10000.00
2022-10-12T11:31:32.647Z,11956.00
2022-10-12T11:32:32.636Z,11260.00
2022-10-12T11:33:32.606Z,11724.00
2022-10-12T11:34:32.655Z,11164.00
2022-10-12T11:35:32.587Z,11108.00
2022-10-12T11:36:32.566Z,11148.00
2022-10-12T11:37:32.588Z,11828.00
2022-10-12T11:38:32.570Z,11780.00
2022-10-12T11:39:32.547Z,12200.00
2022-10-12T11:41:05.673Z,13496.00
2022-10-12T11:41:36.014Z,10292.00
2022-10-12T11:42:32.527Z,10000.00
2022-10-12T11:43:32.512Z,9508.00
2022-10-12T11:44:32.508Z,9088.00
2022-10-12T11:45:32.513Z,8932.00
2022-10-12T11:46:32.467Z,8980.00
2022-10-12T11:47:32.470Z,8624.00
2022-10-12T11:48:32.460Z,8516.00
2022-10-12T11:49:32.471Z,8560.00
2022-10-12T11:50:32.420Z,8440.00
2022-10-12T11:51:32.450Z,8132.00
2022-10-12T11:52:32.415Z,7836.00
2022-10-12T11:53:32.421Z,7380.00
2022-10-12T11:54:32.398Z,6976.00
2022-10-12T11:55:32.403Z,6516.00
2022-10-12T11:56:32.371Z,6072.00
2022-10-12T11:57:32.363Z,6132.00
2022-10-12T11:58:55.789Z,6432.00
2022-10-12T11:59:33.344Z,6608.00
2022-10-12T12:00:32.318Z,6712.00
2022-10-12T12:01:32.343Z,6972.00
2022-10-12T12:02:32.293Z,7068.00
2022-10-12T12:03:32.348Z,6944.00
2022-10-12T12:04:48.072Z,6760.00
2022-10-12T12:05:33.286Z,6816.00
2022-10-12T12:06:32.292Z,7004.00
2022-10-12T12:07:32.246Z,7512.00
2022-10-12T12:08:32.246Z,8356.00
2022-10-12T12:09:32.226Z,10684.00
2022-10-12T12:10:32.216Z,13336.00
2022-10-12T12:11:32.228Z,14268.00
2022-10-12T12:12:32.196Z,25952.00
2022-10-12T12:13:32.374Z,15680.00
2022-10-12T12:14:32.177Z,15744.00
2022-10-12T12:15:32.178Z,17376.00
2022-10-12T12:16:32.147Z,14152.00
2022-10-12T12:17:32.576Z,11976.00
2022-10-12T12:18:32.163Z,11000.00
2022-10-12T12:19:32.129Z,11144.00
2022-10-12T12:20:32.120Z,10976.00
2022-10-12T12:21:32.100Z,10880.00
2022-10-12T12:22:32.102Z,11180.00
2022-10-12T12:23:32.363Z,11640.00
2022-10-12T12:24:32.061Z,12408.00
2022-10-12T12:25:32.072Z,12184.00
2022-10-12T12:26:32.041Z,11648.00
2022-10-12T12:27:32.031Z,12472.00
2022-10-12T12:28:32.099Z,15228.00
2022-10-12T12:29:32.022Z,18720.00
2022-10-12T12:30:32.003Z,13568.00
2022-10-12T12:31:32.006Z,12328.00
2022-10-12T12:32:32.004Z,16256.00
2022-10-12T12:33:31.967Z,65856.00
2022-10-12T12:34:31.967Z,22720.00
2022-10-12T12:35:31.950Z,14472.00
2022-10-12T12:36:31.949Z,12980.00
2022-10-12T12:37:31.925Z,12420.00